sensor_id;sensor_type;location;lat;lon;timestamp;P1;durP1;ratioP1;P2;durP2;ratioP2
63653;SDS011;49809;47.418;19.080;2023-02-11T00:02:57;8.40;;;5.78;;
63653;SDS011;49809;47.418;19.080;2023-02-11T00:06:34;18.48;;;7.25;;
63653;SDS011;49809;47.418;19.080;2023-02-11T00:09:44;13.35;;;6.68;;
63653;SDS011;49809;47.418;19.080;2023-02-11T00:12:57;16.67;;;8.45;;
63653;SDS011;49809;47.418;19.080;2023-02-11T00:16:21;13.98;;;7.43;;
63653;SDS011;49809;47.418;19.080;2023-02-11T00:19:27;13.17;;;7.20;;
63653;SDS011;49809;47.418;19.080;2023-02-11T00:22:49;12.80;;;7.28;;
63653;SDS011;49809;47.418;19.080;2023-02-11T00:26:36;9.70;;;6.03;;
63653;SDS011;49809;47.418;19.080;2023-02-11T00:29:42;7.90;;;6.25;;
63653;SDS011;49809;47.418;19.080;2023-02-11T00:33:06;18.87;;;5.82;;
63653;SDS011;49809;47.418;19.080;2023-02-11T00:36:29;10.85;;;6.50;;
63653;SDS011;49809;47.418;19.080;2023-02-11T00:39:41;15.80;;;6.25;;
63653;SDS011;49809;47.418;19.080;2023-02-11T00:43:05;9.98;;;5.53;;
63653;SDS011;49809;47.418;19.080;2023-02-11T00:46:09;12.40;;;5.80;;
63653;SDS011;49809;47.418;19.080;2023-02-11T00:49:12;17.15;;;7.45;;
63653;SDS011;49809;47.418;19.080;2023-02-11T00:52:38;8.68;;;6.28;;
63653;SDS011;49809;47.418;19.080;2023-02-11T00:55:42;13.20;;;8.25;;
63653;SDS011;49809;47.418;19.080;2023-02-11T00:58:51;16.95;;;7.82;;
63653;SDS011;49809;47.418;19.080;2023-02-11T01:01:55;30.85;;;8.00;;
63653;SDS011;49809;47.418;19.080;2023-02-11T01:05:03;10.25;;;5.18;;
63653;SDS011;49809;47.418;19.080;2023-02-11T01:08:08;9.23;;;5.82;;
63653;SDS011;49809;47.418;19.080;2023-02-11T01:11:15;11.40;;;6.70;;
63653;SDS011;49809;47.418;19.080;2023-02-11T01:14:41;14.52;;;6.85;;
63653;SDS011;49809;47.418;19.080;2023-02-11T01:17:48;10.45;;;7.25;;
63653;SDS011;49809;47.418;19.080;2023-02-11T01:21:14;9.73;;;7.15;;
63653;SDS011;49809;47.418;19.080;2023-02-11T01:24:19;22.77;;;7.22;;
63653;SDS011;49809;47.418;19.080;2023-02-11T01:27:22;13.55;;;5.43;;
63653;SDS011;49809;47.418;19.080;2023-02-11T01:30:29;12.13;;;6.25;;
63653;SDS011;49809;47.418;19.080;2023-02-11T01:33:39;6.90;;;4.80;;
63653;SDS011;49809;47.418;19.080;2023-02-11T01:37:04;4.97;;;4.20;;
63653;SDS011;49809;47.418;19.080;2023-02-11T01:40:16;6.15;;;4.10;;
63653;SDS011;49809;47.418;19.080;2023-02-11T01:43:33;17.40;;;6.82;;
63653;SDS011;49809;47.418;19.080;2023-02-11T01:47:02;11.07;;;5.65;;
63653;SDS011;49809;47.418;19.080;2023-02-11T01:50:11;23.65;;;9.35;;
63653;SDS011;49809;47.418;19.080;2023-02-11T01:53:16;11.50;;;5.53;;
63653;SDS011;49809;47.418;19.080;2023-02-11T01:56:43;11.38;;;5.72;;
63653;SDS011;49809;47.418;19.080;2023-02-11T02:04:10;7.70;;;5.32;;
63653;SDS011;49809;47.418;19.080;2023-02-11T02:07:41;11.45;;;5.95;;
63653;SDS011;49809;47.418;19.080;2023-02-11T02:10:54;18.55;;;5.80;;
63653;SDS011;49809;47.418;19.080;2023-02-11T02:14:25;9.55;;;5.57;;
63653;SDS011;49809;47.418;19.080;2023-02-11T02:38:33;10.90;;;6.78;;
63653;SDS011;49809;47.418;19.080;2023-02-11T02:41:50;8.00;;;5.85;;
63653;SDS011;49809;47.418;19.080;2023-02-11T02:48:00;13.48;;;5.78;;
63653;SDS011;49809;47.418;19.080;2023-02-11T03:05:05;9.32;;;5.03;;
63653;SDS011;49809;47.418;19.080;2023-02-11T03:08:32;9.07;;;5.57;;
63653;SDS011;49809;47.418;19.080;2023-02-11T03:11:43;8.55;;;5.57;;
63653;SDS011;49809;47.418;19.080;2023-02-11T03:14:50;12.00;;;8.35;;
63653;SDS011;49809;47.418;19.080;2023-02-11T03:17:57;12.88;;;7.90;;
63653;SDS011;49809;47.418;19.080;2023-02-11T03:21:05;6.20;;;5.50;;
63653;SDS011;49809;47.418;19.080;2023-02-11T03:24:14;8.75;;;5.53;;
63653;SDS011;49809;47.418;19.080;2023-02-11T03:31:16;7.68;;;3.92;;
63653;SDS011;49809;47.418;19.080;2023-02-11T03:38:04;6.87;;;4.87;;
63653;SDS011;49809;47.418;19.080;2023-02-11T03:41:19;14.63;;;5.43;;
63653;SDS011;49809;47.418;19.080;2023-02-11T03:44:27;7.82;;;5.62;;
63653;SDS011;49809;47.418;19.080;2023-02-11T03:48:02;7.97;;;4.45;;
63653;SDS011;49809;47.418;19.080;2023-02-11T03:51:31;9.25;;;4.28;;
63653;SDS011;49809;47.418;19.080;2023-02-11T03:55:18;7.55;;;4.43;;
63653;SDS011;49809;47.418;19.080;2023-02-11T03:58:25;4.22;;;3.65;;
63653;SDS011;49809;47.418;19.080;2023-02-11T04:01:34;5.20;;;4.22;;
63653;SDS011;49809;47.418;19.080;2023-02-11T04:04:41;10.05;;;4.47;;
63653;SDS011;49809;47.418;19.080;2023-02-11T04:07:49;10.18;;;5.37;;
63653;SDS011;49809;47.418;19.080;2023-02-11T04:11:17;6.45;;;5.20;;
63653;SDS011;49809;47.418;19.080;2023-02-11T04:15:00;6.28;;;4.82;;
63653;SDS011;49809;47.418;19.080;2023-02-11T04:18:25;6.70;;;3.80;;
63653;SDS011;49809;47.418;19.080;2023-02-11T04:21:48;8.48;;;4.87;;
63653;SDS011;49809;47.418;19.080;2023-02-11T04:24:53;7.93;;;4.68;;
63653;SDS011;49809;47.418;19.080;2023-02-11T04:28:18;13.23;;;4.30;;
63653;SDS011;49809;47.418;19.080;2023-02-11T04:31:24;13.02;;;4.22;;
63653;SDS011;49809;47.418;19.080;2023-02-11T04:34:27;12.60;;;5.05;;
63653;SDS011;49809;47.418;19.080;2023-02-11T04:37:33;8.85;;;5.20;;
63653;SDS011;49809;47.418;19.080;2023-02-11T04:40:44;5.75;;;3.97;;
63653;SDS011;49809;47.418;19.080;2023-02-11T04:43:48;4.50;;;2.78;;
63653;SDS011;49809;47.418;19.080;2023-02-11T04:46:51;14.27;;;6.78;;
63653;SDS011;49809;47.418;19.080;2023-02-11T04:49:59;7.35;;;5.15;;
63653;SDS011;49809;47.418;19.080;2023-02-11T04:53:03;7.80;;;4.68;;
63653;SDS011;49809;47.418;19.080;2023-02-11T04:56:08;7.10;;;4.10;;
63653;SDS011;49809;47.418;19.080;2023-02-11T04:59:13;7.07;;;5.50;;
63653;SDS011;49809;47.418;19.080;2023-02-11T05:02:17;15.75;;;6.57;;
63653;SDS011;49809;47.418;19.080;2023-02-11T05:05:40;6.28;;;4.87;;
63653;SDS011;49809;47.418;19.080;2023-02-11T05:09:09;8.00;;;4.30;;
63653;SDS011;49809;47.418;19.080;2023-02-11T05:12:15;7.80;;;5.57;;
63653;SDS011;49809;47.418;19.080;2023-02-11T05:15:24;6.90;;;5.10;;
63653;SDS011;49809;47.418;19.080;2023-02-11T05:18:28;9.50;;;4.97;;
63653;SDS011;49809;47.418;19.080;2023-02-11T05:21:34;10.45;;;4.47;;
63653;SDS011;49809;47.418;19.080;2023-02-11T05:24:41;6.35;;;5.37;;
63653;SDS011;49809;47.418;19.080;2023-02-11T05:28:05;5.65;;;4.53;;
63653;SDS011;49809;47.418;19.080;2023-02-11T05:31:09;10.95;;;4.10;;
63653;SDS011;49809;47.418;19.080;2023-02-11T05:34:17;6.87;;;5.45;;
63653;SDS011;49809;47.418;19.080;2023-02-11T05:37:22;8.10;;;6.93;;
63653;SDS011;49809;47.418;19.080;2023-02-11T05:40:27;16.60;;;5.90;;
63653;SDS011;49809;47.418;19.080;2023-02-11T05:43:34;11.05;;;6.30;;
63653;SDS011;49809;47.418;19.080;2023-02-11T05:46:45;11.15;;;6.70;;
63653;SDS011;49809;47.418;19.080;2023-02-11T05:49:52;14.43;;;6.35;;
63653;SDS011;49809;47.418;19.080;2023-02-11T05:52:57;7.85;;;6.45;;
63653;SDS011;49809;47.418;19.080;2023-02-11T05:56:09;7.85;;;5.32;;
63653;SDS011;49809;47.418;19.080;2023-02-11T05:59:15;12.30;;;6.53;;
63653;SDS011;49809;47.418;19.080;2023-02-11T06:02:19;13.15;;;7.37;;
63653;SDS011;49809;47.418;19.080;2023-02-11T06:05:27;6.85;;;5.32;;
63653;SDS011;49809;47.418;19.080;2023-02-11T06:08:40;10.00;;;5.35;;
63653;SDS011;49809;47.418;19.080;2023-02-11T06:12:09;6.12;;;5.03;;
63653;SDS011;49809;47.418;19.080;2023-02-11T06:15:33;8.70;;;3.70;;
63653;SDS011;49809;47.418;19.080;2023-02-11T06:19:06;10.82;;;5.37;;
63653;SDS011;49809;47.418;19.080;2023-02-11T06:22:09;6.40;;;5.35;;
63653;SDS011;49809;47.418;19.080;2023-02-11T06:25:32;9.98;;;6.82;;
63653;SDS011;49809;47.418;19.080;2023-02-11T06:28:35;9.65;;;6.68;;
63653;SDS011;49809;47.418;19.080;2023-02-11T06:31:44;4.45;;;3.85;;
63653;SDS011;49809;47.418;19.080;2023-02-11T06:34:47;7.85;;;4.18;;
63653;SDS011;49809;47.418;19.080;2023-02-11T06:37:56;8.55;;;5.28;;
63653;SDS011;49809;47.418;19.080;2023-02-11T06:41:23;17.55;;;6.15;;
63653;SDS011;49809;47.418;19.080;2023-02-11T06:45:15;8.13;;;4.80;;
63653;SDS011;49809;47.418;19.080;2023-02-11T06:48:22;13.57;;;5.60;;
63653;SDS011;49809;47.418;19.080;2023-02-11T06:51:51;14.00;;;5.53;;
63653;SDS011;49809;47.418;19.080;2023-02-11T06:54:54;17.40;;;6.97;;
63653;SDS011;49809;47.418;19.080;2023-02-11T06:57:58;14.57;;;8.20;;
63653;SDS011;49809;47.418;19.080;2023-02-11T07:01:06;13.32;;;8.05;;
63653;SDS011;49809;47.418;19.080;2023-02-11T07:04:12;8.40;;;5.75;;
63653;SDS011;49809;47.418;19.080;2023-02-11T07:07:18;11.23;;;5.55;;
63653;SDS011;49809;47.418;19.080;2023-02-11T07:10:22;12.37;;;6.95;;
63653;SDS011;49809;47.418;19.080;2023-02-11T07:13:27;11.60;;;5.35;;
63653;SDS011;49809;47.418;19.080;2023-02-11T07:16:31;10.65;;;7.00;;
63653;SDS011;49809;47.418;19.080;2023-02-11T07:19:34;12.35;;;6.50;;
63653;SDS011;49809;47.418;19.080;2023-02-11T07:23:05;8.15;;;5.57;;
63653;SDS011;49809;47.418;19.080;2023-02-11T07:26:14;18.37;;;6.28;;
63653;SDS011;49809;47.418;19.080;2023-02-11T07:29:26;16.33;;;5.90;;
63653;SDS011;49809;47.418;19.080;2023-02-11T07:32:29;16.52;;;7.97;;
63653;SDS011;49809;47.418;19.080;2023-02-11T07:35:38;15.93;;;7.32;;
63653;SDS011;49809;47.418;19.080;2023-02-11T07:39:01;15.68;;;9.05;;
63653;SDS011;49809;47.418;19.080;2023-02-11T07:42:04;11.95;;;7.55;;
63653;SDS011;49809;47.418;19.080;2023-02-11T07:45:27;18.98;;;7.28;;
63653;SDS011;49809;47.418;19.080;2023-02-11T07:49:04;20.05;;;8.27;;
63653;SDS011;49809;47.418;19.080;2023-02-11T07:52:07;22.95;;;8.70;;
63653;SDS011;49809;47.418;19.080;2023-02-11T07:55:12;17.83;;;7.72;;
63653;SDS011;49809;47.418;19.080;2023-02-11T07:58:16;17.87;;;9.45;;
63653;SDS011;49809;47.418;19.080;2023-02-11T08:01:22;14.27;;;7.60;;
63653;SDS011;49809;47.418;19.080;2023-02-11T08:04:50;16.90;;;8.55;;
63653;SDS011;49809;47.418;19.080;2023-02-11T08:07:57;12.75;;;6.95;;
63653;SDS011;49809;47.418;19.080;2023-02-11T08:11:10;16.75;;;7.85;;
63653;SDS011;49809;47.418;19.080;2023-02-11T08:14:36;15.65;;;7.62;;
63653;SDS011;49809;47.418;19.080;2023-02-11T08:18:12;21.50;;;9.75;;
63653;SDS011;49809;47.418;19.080;2023-02-11T08:21:36;13.45;;;8.43;;
63653;SDS011;49809;47.418;19.080;2023-02-11T08:24:42;18.65;;;9.43;;
63653;SDS011;49809;47.418;19.080;2023-02-11T08:27:51;21.10;;;9.80;;
63653;SDS011;49809;47.418;19.080;2023-02-11T08:31:03;26.23;;;9.70;;
63653;SDS011;49809;47.418;19.080;2023-02-11T08:34:09;25.75;;;10.52;;
63653;SDS011;49809;47.418;19.080;2023-02-11T08:37:16;23.73;;;11.07;;
63653;SDS011;49809;47.418;19.080;2023-02-11T08:40:20;26.15;;;11.30;;
63653;SDS011;49809;47.418;19.080;2023-02-11T08:43:26;25.40;;;12.80;;
63653;SDS011;49809;47.418;19.080;2023-02-11T08:46:50;26.35;;;11.55;;
63653;SDS011;49809;47.418;19.080;2023-02-11T08:49:55;23.60;;;11.65;;
63653;SDS011;49809;47.418;19.080;2023-02-11T08:53:18;26.98;;;12.18;;
63653;SDS011;49809;47.418;19.080;2023-02-11T08:56:29;28.30;;;13.48;;
63653;SDS011;49809;47.418;19.080;2023-02-11T08:59:35;22.33;;;10.27;;
63653;SDS011;49809;47.418;19.080;2023-02-11T09:02:41;24.23;;;9.57;;
63653;SDS011;49809;47.418;19.080;2023-02-11T09:05:47;21.85;;;10.32;;
63653;SDS011;49809;47.418;19.080;2023-02-11T09:12:01;21.08;;;9.70;;
63653;SDS011;49809;47.418;19.080;2023-02-11T09:15:37;15.32;;;7.28;;
63653;SDS011;49809;47.418;19.080;2023-02-11T09:19:20;14.82;;;7.25;;
63653;SDS011;49809;47.418;19.080;2023-02-11T09:22:44;20.35;;;10.05;;
63653;SDS011;49809;47.418;19.080;2023-02-11T09:25:55;20.52;;;8.45;;
63653;SDS011;49809;47.418;19.080;2023-02-11T09:29:03;20.05;;;8.88;;
63653;SDS011;49809;47.418;19.080;2023-02-11T09:32:10;24.83;;;9.32;;
63653;SDS011;49809;47.418;19.080;2023-02-11T09:35:17;24.58;;;8.18;;
63653;SDS011;49809;47.418;19.080;2023-02-11T09:38:41;19.67;;;8.43;;
63653;SDS011;49809;47.418;19.080;2023-02-11T09:48:52;19.27;;;8.68;;
63653;SDS011;49809;47.418;19.080;2023-02-11T09:52:04;17.73;;;7.62;;
63653;SDS011;49809;47.418;19.080;2023-02-11T09:58:57;18.92;;;9.07;;
63653;SDS011;49809;47.418;19.080;2023-02-11T10:02:03;14.65;;;8.05;;
63653;SDS011;49809;47.418;19.080;2023-02-11T10:23:15;19.45;;;9.55;;
63653;SDS011;49809;47.418;19.080;2023-02-11T10:26:25;24.37;;;10.38;;
63653;SDS011;49809;47.418;19.080;2023-02-11T10:29:37;26.05;;;10.63;;
63653;SDS011;49809;47.418;19.080;2023-02-11T10:32:46;24.37;;;11.48;;
63653;SDS011;49809;47.418;19.080;2023-02-11T10:36:16;20.60;;;9.82;;
63653;SDS011;49809;47.418;19.080;2023-02-11T10:39:26;20.27;;;8.55;;
63653;SDS011;49809;47.418;19.080;2023-02-11T10:42:30;20.20;;;10.07;;
63653;SDS011;49809;47.418;19.080;2023-02-11T10:46:06;19.58;;;10.35;;
63653;SDS011;49809;47.418;19.080;2023-02-11T10:49:34;19.60;;;8.85;;
63653;SDS011;49809;47.418;19.080;2023-02-11T10:52:40;25.95;;;10.60;;
63653;SDS011;49809;47.418;19.080;2023-02-11T10:55:54;16.85;;;9.25;;
63653;SDS011;49809;47.418;19.080;2023-02-11T10:59:04;19.12;;;9.45;;
63653;SDS011;49809;47.418;19.080;2023-02-11T11:02:34;28.10;;;8.82;;
63653;SDS011;49809;47.418;19.080;2023-02-11T11:05:59;27.37;;;11.77;;
63653;SDS011;49809;47.418;19.080;2023-02-11T11:09:08;22.37;;;10.97;;
63653;SDS011;49809;47.418;19.080;2023-02-11T11:19:14;16.90;;;8.88;;
63653;SDS011;49809;47.418;19.080;2023-02-11T11:22:43;24.65;;;10.38;;
63653;SDS011;49809;47.418;19.080;2023-02-11T11:29:47;19.83;;;9.20;;
63653;SDS011;49809;47.418;19.080;2023-02-11T11:32:52;19.60;;;9.63;;
63653;SDS011;49809;47.418;19.080;2023-02-11T11:36:09;21.23;;;9.98;;
63653;SDS011;49809;47.418;19.080;2023-02-11T11:42:28;25.73;;;9.82;;
63653;SDS011;49809;47.418;19.080;2023-02-11T11:45:56;17.60;;;8.40;;
63653;SDS011;49809;47.418;19.080;2023-02-11T11:49:24;29.52;;;10.85;;
63653;SDS011;49809;47.418;19.080;2023-02-11T11:52:58;21.23;;;9.48;;
63653;SDS011;49809;47.418;19.080;2023-02-11T11:56:22;29.10;;;9.32;;
63653;SDS011;49809;47.418;19.080;2023-02-11T12:06:28;21.20;;;9.30;;
63653;SDS011;49809;47.418;19.080;2023-02-11T12:13:03;18.00;;;9.90;;
63653;SDS011;49809;47.418;19.080;2023-02-11T12:19:51;22.00;;;9.35;;
63653;SDS011;49809;47.418;19.080;2023-02-11T12:26:48;19.92;;;9.00;;
63653;SDS011;49809;47.418;19.080;2023-02-11T12:57:16;20.92;;;9.88;;
63653;SDS011;49809;47.418;19.080;2023-02-11T13:00:39;16.67;;;8.48;;
63653;SDS011;49809;47.418;19.080;2023-02-11T13:07:16;16.98;;;8.35;;
63653;SDS011;49809;47.418;19.080;2023-02-11T13:10:34;20.52;;;8.15;;
63653;SDS011;49809;47.418;19.080;2023-02-11T13:17:04;16.90;;;8.55;;
63653;SDS011;49809;47.418;19.080;2023-02-11T13:20:34;18.37;;;7.72;;
63653;SDS011;49809;47.418;19.080;2023-02-11T13:23:56;20.50;;;8.52;;
63653;SDS011;49809;47.418;19.080;2023-02-11T13:30:47;20.98;;;8.98;;
63653;SDS011;49809;47.418;19.080;2023-02-11T13:33:59;18.60;;;8.02;;
63653;SDS011;49809;47.418;19.080;2023-02-11T13:37:04;16.80;;;7.62;;
63653;SDS011;49809;47.418;19.080;2023-02-11T13:40:35;15.70;;;7.78;;
63653;SDS011;49809;47.418;19.080;2023-02-11T13:43:42;17.37;;;8.07;;
63653;SDS011;49809;47.418;19.080;2023-02-11T13:46:51;17.25;;;7.57;;
63653;SDS011;49809;47.418;19.080;2023-02-11T13:50:05;15.32;;;7.87;;
63653;SDS011;49809;47.418;19.080;2023-02-11T13:53:10;20.85;;;9.13;;
63653;SDS011;49809;47.418;19.080;2023-02-11T13:56:59;20.83;;;9.73;;
63653;SDS011;49809;47.418;19.080;2023-02-11T14:06:48;14.02;;;7.35;;
63653;SDS011;49809;47.418;19.080;2023-02-11T14:10:47;18.92;;;8.80;;
63653;SDS011;49809;47.418;19.080;2023-02-11T14:17:25;19.50;;;7.00;;
63653;SDS011;49809;47.418;19.080;2023-02-11T14:20:34;15.65;;;8.13;;
63653;SDS011;49809;47.418;19.080;2023-02-11T14:27:26;13.80;;;6.30;;
63653;SDS011;49809;47.418;19.080;2023-02-11T14:38:03;12.60;;;5.50;;
63653;SDS011;49809;47.418;19.080;2023-02-11T14:41:46;12.85;;;5.18;;
63653;SDS011;49809;47.418;19.080;2023-02-11T14:44:57;12.20;;;4.97;;
63653;SDS011;49809;47.418;19.080;2023-02-11T14:48:07;14.52;;;5.85;;
63653;SDS011;49809;47.418;19.080;2023-02-11T14:51:19;12.93;;;5.85;;
63653;SDS011;49809;47.418;19.080;2023-02-11T14:54:29;9.45;;;4.65;;
63653;SDS011;49809;47.418;19.080;2023-02-11T14:57:34;14.90;;;5.87;;
63653;SDS011;49809;47.418;19.080;2023-02-11T15:00:48;14.52;;;5.40;;
63653;SDS011;49809;47.418;19.080;2023-02-11T15:04:25;13.93;;;6.28;;
63653;SDS011;49809;47.418;19.080;2023-02-11T15:07:31;13.48;;;5.75;;
63653;SDS011;49809;47.418;19.080;2023-02-11T15:10:36;11.65;;;4.30;;
63653;SDS011;49809;47.418;19.080;2023-02-11T15:14:14;14.77;;;6.22;;
63653;SDS011;49809;47.418;19.080;2023-02-11T15:17:47;9.80;;;5.00;;
63653;SDS011;49809;47.418;19.080;2023-02-11T15:20:51;17.48;;;6.50;;
63653;SDS011;49809;47.418;19.080;2023-02-11T15:24:03;9.85;;;4.78;;
63653;SDS011;49809;47.418;19.080;2023-02-11T15:27:23;12.00;;;5.03;;
63653;SDS011;49809;47.418;19.080;2023-02-11T15:30:31;16.77;;;6.28;;
63653;SDS011;49809;47.418;19.080;2023-02-11T15:33:40;10.93;;;5.20;;
63653;SDS011;49809;47.418;19.080;2023-02-11T15:36:44;12.95;;;5.43;;
63653;SDS011;49809;47.418;19.080;2023-02-11T15:39:49;12.20;;;6.20;;
63653;SDS011;49809;47.418;19.080;2023-02-11T15:43:18;13.32;;;6.10;;
63653;SDS011;49809;47.418;19.080;2023-02-11T15:46:21;12.27;;;5.68;;
63653;SDS011;49809;47.418;19.080;2023-02-11T15:49:30;14.07;;;5.53;;
63653;SDS011;49809;47.418;19.080;2023-02-11T15:52:35;12.02;;;6.20;;
63653;SDS011;49809;47.418;19.080;2023-02-11T15:55:43;16.42;;;6.20;;
63653;SDS011;49809;47.418;19.080;2023-02-11T15:58:54;11.98;;;4.97;;
63653;SDS011;49809;47.418;19.080;2023-02-11T16:02:08;12.80;;;5.97;;
63653;SDS011;49809;47.418;19.080;2023-02-11T16:05:24;15.95;;;5.55;;
63653;SDS011;49809;47.418;19.080;2023-02-11T16:08:28;15.07;;;5.60;;
63653;SDS011;49809;47.418;19.080;2023-02-11T16:11:35;17.27;;;6.18;;
63653;SDS011;49809;47.418;19.080;2023-02-11T16:19:29;19.92;;;6.55;;
63653;SDS011;49809;47.418;19.080;2023-02-11T16:26:19;16.90;;;6.57;;
63653;SDS011;49809;47.418;19.080;2023-02-11T16:29:53;11.27;;;6.45;;
63653;SDS011;49809;47.418;19.080;2023-02-11T16:33:17;13.80;;;6.20;;
63653;SDS011;49809;47.418;19.080;2023-02-11T16:36:25;14.10;;;5.22;;
63653;SDS011;49809;47.418;19.080;2023-02-11T16:39:53;12.45;;;5.87;;
63653;SDS011;49809;47.418;19.080;2023-02-11T16:43:21;11.75;;;6.07;;
63653;SDS011;49809;47.418;19.080;2023-02-11T16:46:46;13.40;;;5.53;;
63653;SDS011;49809;47.418;19.080;2023-02-11T16:49:49;15.68;;;5.72;;
63653;SDS011;49809;47.418;19.080;2023-02-11T16:52:55;12.18;;;5.70;;
63653;SDS011;49809;47.418;19.080;2023-02-11T16:56:26;19.33;;;7.53;;
63653;SDS011;49809;47.418;19.080;2023-02-11T16:59:38;22.85;;;9.48;;
63653;SDS011;49809;47.418;19.080;2023-02-11T17:02:45;20.40;;;9.38;;
63653;SDS011;49809;47.418;19.080;2023-02-11T17:06:09;19.25;;;8.60;;
63653;SDS011;49809;47.418;19.080;2023-02-11T17:09:33;21.05;;;8.43;;
63653;SDS011;49809;47.418;19.080;2023-02-11T17:12:59;25.42;;;10.60;;
63653;SDS011;49809;47.418;19.080;2023-02-11T17:16:22;23.65;;;10.57;;
63653;SDS011;49809;47.418;19.080;2023-02-11T17:19:29;26.20;;;11.82;;
63653;SDS011;49809;47.418;19.080;2023-02-11T17:22:56;21.70;;;11.85;;
63653;SDS011;49809;47.418;19.080;2023-02-11T17:26:00;26.27;;;11.82;;
63653;SDS011;49809;47.418;19.080;2023-02-11T17:29:06;27.50;;;11.35;;
63653;SDS011;49809;47.418;19.080;2023-02-11T17:32:14;33.88;;;12.35;;
63653;SDS011;49809;47.418;19.080;2023-02-11T17:35:38;24.75;;;11.02;;
63653;SDS011;49809;47.418;19.080;2023-02-11T17:38:46;21.85;;;10.05;;
63653;SDS011;49809;47.418;19.080;2023-02-11T17:41:55;20.85;;;10.90;;
63653;SDS011;49809;47.418;19.080;2023-02-11T17:45:46;22.13;;;9.80;;
63653;SDS011;49809;47.418;19.080;2023-02-11T17:49:29;19.25;;;9.10;;
63653;SDS011;49809;47.418;19.080;2023-02-11T17:56:40;16.70;;;8.73;;
63653;SDS011;49809;47.418;19.080;2023-02-11T17:59:45;18.70;;;9.00;;
63653;SDS011;49809;47.418;19.080;2023-02-11T18:02:50;18.12;;;9.50;;
63653;SDS011;49809;47.418;19.080;2023-02-11T18:05:58;24.50;;;11.00;;
63653;SDS011;49809;47.418;19.080;2023-02-11T18:09:24;26.17;;;12.23;;
63653;SDS011;49809;47.418;19.080;2023-02-11T18:12:48;22.45;;;11.20;;
63653;SDS011;49809;47.418;19.080;2023-02-11T18:15:53;18.35;;;9.93;;
63653;SDS011;49809;47.418;19.080;2023-02-11T18:19:01;28.05;;;11.10;;
63653;SDS011;49809;47.418;19.080;2023-02-11T18:22:10;28.05;;;12.15;;
63653;SDS011;49809;47.418;19.080;2023-02-11T18:25:19;31.62;;;11.70;;
63653;SDS011;49809;47.418;19.080;2023-02-11T18:28:42;19.85;;;10.57;;
63653;SDS011;49809;47.418;19.080;2023-02-11T18:32:12;19.75;;;10.65;;
63653;SDS011;49809;47.418;19.080;2023-02-11T18:35:40;18.55;;;9.30;;
63653;SDS011;49809;47.418;19.080;2023-02-11T18:38:47;17.60;;;8.38;;
63653;SDS011;49809;47.418;19.080;2023-02-11T18:42:32;16.45;;;8.15;;
63653;SDS011;49809;47.418;19.080;2023-02-11T18:46:09;14.23;;;7.28;;
63653;SDS011;49809;47.418;19.080;2023-02-11T18:53:18;13.18;;;7.15;;
63653;SDS011;49809;47.418;19.080;2023-02-11T18:56:43;21.62;;;10.68;;
63653;SDS011;49809;47.418;19.080;2023-02-11T19:08:27;23.25;;;9.30;;
63653;SDS011;49809;47.418;19.080;2023-02-11T19:15:10;15.43;;;6.15;;
63653;SDS011;49809;47.418;19.080;2023-02-11T19:18:15;10.70;;;5.57;;
63653;SDS011;49809;47.418;19.080;2023-02-11T19:21:40;17.50;;;8.15;;
63653;SDS011;49809;47.418;19.080;2023-02-11T19:24:52;18.92;;;8.05;;
63653;SDS011;49809;47.418;19.080;2023-02-11T19:27:56;25.42;;;8.73;;
63653;SDS011;49809;47.418;19.080;2023-02-11T19:31:47;19.17;;;8.20;;
63653;SDS011;49809;47.418;19.080;2023-02-11T19:34:50;23.80;;;9.65;;
63653;SDS011;49809;47.418;19.080;2023-02-11T19:38:02;20.62;;;10.27;;
63653;SDS011;49809;47.418;19.080;2023-02-11T19:41:10;16.55;;;8.88;;
63653;SDS011;49809;47.418;19.080;2023-02-11T19:44:34;14.35;;;7.22;;
63653;SDS011;49809;47.418;19.080;2023-02-11T19:48:11;19.30;;;8.30;;
63653;SDS011;49809;47.418;19.080;2023-02-11T19:51:17;14.30;;;7.45;;
63653;SDS011;49809;47.418;19.080;2023-02-11T19:54:23;19.00;;;8.90;;
63653;SDS011;49809;47.418;19.080;2023-02-11T19:57:51;11.88;;;6.03;;
63653;SDS011;49809;47.418;19.080;2023-02-11T20:01:09;13.95;;;6.37;;
63653;SDS011;49809;47.418;19.080;2023-02-11T20:04:53;15.45;;;6.82;;
63653;SDS011;49809;47.418;19.080;2023-02-11T20:07:57;13.82;;;7.25;;
63653;SDS011;49809;47.418;19.080;2023-02-11T20:11:10;12.70;;;7.15;;
63653;SDS011;49809;47.418;19.080;2023-02-11T20:14:17;12.80;;;6.37;;
63653;SDS011;49809;47.418;19.080;2023-02-11T20:18:03;11.80;;;6.45;;
63653;SDS011;49809;47.418;19.080;2023-02-11T20:21:06;13.50;;;6.20;;
63653;SDS011;49809;47.418;19.080;2023-02-11T20:24:32;13.27;;;5.13;;
63653;SDS011;49809;47.418;19.080;2023-02-11T20:27:51;15.43;;;5.85;;
63653;SDS011;49809;47.418;19.080;2023-02-11T20:31:16;13.13;;;5.50;;
63653;SDS011;49809;47.418;19.080;2023-02-11T20:34:31;17.52;;;6.22;;
63653;SDS011;49809;47.418;19.080;2023-02-11T20:38:04;15.07;;;6.87;;
63653;SDS011;49809;47.418;19.080;2023-02-11T20:41:35;16.90;;;7.37;;
63653;SDS011;49809;47.418;19.080;2023-02-11T20:45:04;13.18;;;6.62;;
63653;SDS011;49809;47.418;19.080;2023-02-11T20:48:27;15.57;;;7.03;;
63653;SDS011;49809;47.418;19.080;2023-02-11T20:51:32;18.52;;;8.32;;
63653;SDS011;49809;47.418;19.080;2023-02-11T20:54:58;22.83;;;8.85;;
63653;SDS011;49809;47.418;19.080;2023-02-11T20:58:04;17.92;;;8.50;;
63653;SDS011;49809;47.418;19.080;2023-02-11T21:01:38;25.70;;;9.25;;
63653;SDS011;49809;47.418;19.080;2023-02-11T21:05:13;12.75;;;5.62;;
63653;SDS011;49809;47.418;19.080;2023-02-11T21:08:36;14.75;;;6.57;;
63653;SDS011;49809;47.418;19.080;2023-02-11T21:11:42;21.27;;;7.68;;
63653;SDS011;49809;47.418;19.080;2023-02-11T21:15:06;21.30;;;8.98;;
63653;SDS011;49809;47.418;19.080;2023-02-11T21:18:35;17.02;;;7.65;;
63653;SDS011;49809;47.418;19.080;2023-02-11T21:21:58;16.00;;;6.90;;
63653;SDS011;49809;47.418;19.080;2023-02-11T21:25:43;19.45;;;6.65;;
63653;SDS011;49809;47.418;19.080;2023-02-11T21:28:50;20.25;;;7.00;;
63653;SDS011;49809;47.418;19.080;2023-02-11T21:32:14;17.42;;;7.12;;
63653;SDS011;49809;47.418;19.080;2023-02-11T21:35:38;14.63;;;6.15;;
63653;SDS011;49809;47.418;19.080;2023-02-11T21:39:05;14.95;;;6.37;;
63653;SDS011;49809;47.418;19.080;2023-02-11T21:42:28;8.65;;;4.93;;
63653;SDS011;49809;47.418;19.080;2023-02-11T21:45:33;7.65;;;3.80;;
63653;SDS011;49809;47.418;19.080;2023-02-11T21:49:09;13.77;;;4.75;;
63653;SDS011;49809;47.418;19.080;2023-02-11T21:52:12;12.10;;;5.35;;
63653;SDS011;49809;47.418;19.080;2023-02-11T21:55:36;9.52;;;4.18;;
63653;SDS011;49809;47.418;19.080;2023-02-11T21:58:45;10.55;;;5.50;;
63653;SDS011;49809;47.418;19.080;2023-02-11T22:02:09;12.77;;;4.78;;
63653;SDS011;49809;47.418;19.080;2023-02-11T22:05:33;8.65;;;4.18;;
63653;SDS011;49809;47.418;19.080;2023-02-11T22:08:36;12.70;;;4.62;;
63653;SDS011;49809;47.418;19.080;2023-02-11T22:11:47;11.18;;;4.45;;
63653;SDS011;49809;47.418;19.080;2023-02-11T22:15:31;7.70;;;4.07;;
63653;SDS011;49809;47.418;19.080;2023-02-11T22:18:36;12.02;;;5.57;;
63653;SDS011;49809;47.418;19.080;2023-02-11T22:22:01;9.98;;;4.82;;
63653;SDS011;49809;47.418;19.080;2023-02-11T22:25:24;8.45;;;4.40;;
63653;SDS011;49809;47.418;19.080;2023-02-11T22:28:47;10.40;;;5.30;;